Time;durP1;ratioP1;P1;durP2;ratioP2;P2;SDS_P1;SDS_P2;PMS_P1;PMS_P2;Temp;Humidity;BMP_temperature;BMP_pressure;BME280_temperature;BME280_humidity;BME280_pressure;Samples;Min_cycle;Max_cycle;Signal;HPM_P1;HPM_P2
2023/01/05 00:01:43;;;;;;;27.13;4.78;;;9.50;99.90;;;;;;5040672;28;20057;-77
2023/01/05 00:04:09;;;;;;;43.90;5.53;;;9.70;99.90;;;;;;5043875;28;20110;-80
2023/01/05 00:06:36;;;;;;;29.58;4.63;;;9.50;99.90;;;;;;5029102;28;20101;-79
2023/01/05 00:09:03;;;;;;;39.05;5.38;;;9.60;99.90;;;;;;5058664;28;20060;-77
2023/01/05 00:22:50;;;;;;;24.52;4.68;;;9.50;99.90;;;;;;5043691;28;20460;-76
2023/01/05 00:25:18;;;;;;;34.72;4.82;;;10.00;99.90;;;;;;5049627;28;20048;-79
2023/01/05 00:27:46;;;;;;;38.05;5.03;;;9.40;99.90;;;;;;5077605;28;20116;-79
2023/01/05 00:30:14;;;;;;;36.03;4.93;;;9.70;99.90;;;;;;5057495;28;20055;-77
2023/01/05 00:32:41;;;;;;;30.55;4.57;;;9.80;99.90;;;;;;5021829;28;20033;-78
2023/01/05 00:35:08;;;;;;;34.28;4.72;;;9.90;99.90;;;;;;5032107;28;20056;-80
2023/01/05 00:37:35;;;;;;;29.20;4.45;;;9.50;99.90;;;;;;5029557;28;20048;-79
2023/01/05 00:40:01;;;;;;;34.38;5.28;;;9.50;99.90;;;;;;5082436;28;20091;-79
2023/01/05 00:42:26;;;;;;;32.03;4.97;;;9.80;99.90;;;;;;5058845;28;20020;-78
2023/01/05 00:44:52;;;;;;;34.50;4.43;;;9.60;99.90;;;;;;5078926;28;20036;-77
2023/01/05 00:47:18;;;;;;;33.88;4.85;;;9.60;99.90;;;;;;5046705;28;20063;-77
2023/01/05 00:49:44;;;;;;;35.72;4.65;;;9.70;99.90;;;;;;5076550;28;20438;-80
2023/01/05 00:52:11;;;;;;;47.92;5.93;;;9.50;99.90;;;;;;5079572;28;20159;-78
2023/01/05 00:54:36;;;;;;;40.10;6.00;;;9.60;99.90;;;;;;5074472;28;20064;-77
2023/01/05 00:57:30;;;;;;;29.10;4.47;;;9.70;99.90;;;;;;5067700;28;20079;-77
2023/01/05 00:59:55;;;;;;;37.42;5.50;;;9.50;99.90;;;;;;5060233;28;20033;-79
2023/01/05 01:02:21;;;;;;;37.10;5.03;;;9.50;99.90;;;;;;5056837;28;20047;-80
2023/01/05 01:04:47;;;;;;;43.10;5.28;;;9.50;99.90;;;;;;5063369;28;20037;-78
2023/01/05 01:07:13;;;;;;;42.10;5.65;;;10.00;99.90;;;;;;5045609;28;20047;-76
2023/01/05 01:09:40;;;;;;;32.17;4.75;;;9.80;99.90;;;;;;5061916;28;20037;-79
2023/01/05 01:12:15;;;;;;;43.92;5.47;;;9.70;99.90;;;;;;5046478;28;20041;-80
2023/01/05 01:14:41;;;;;;;26.92;4.63;;;9.80;99.90;;;;;;5041654;28;20037;-79
2023/01/05 01:17:06;;;;;;;42.40;5.30;;;9.60;99.90;;;;;;5041782;28;20120;-82
2023/01/05 01:19:33;;;;;;;29.48;4.68;;;9.90;99.90;;;;;;5039595;28;20033;-80
2023/01/05 01:22:00;;;;;;;32.90;4.97;;;9.80;99.90;;;;;;5077113;28;20071;-79
2023/01/05 01:24:27;;;;;;;32.38;4.55;;;9.80;99.90;;;;;;5029229;28;20041;-78
2023/01/05 01:26:53;;;;;;;30.52;4.63;;;9.80;99.90;;;;;;5045500;28;20171;-81
2023/01/05 01:29:37;;;;;;;36.33;5.13;;;9.70;99.90;;;;;;5059346;28;20043;-79
2023/01/05 01:32:03;;;;;;;33.97;5.25;;;9.80;99.90;;;;;;5068167;28;20071;-77
2023/01/05 01:34:29;;;;;;;29.85;4.22;;;9.70;99.90;;;;;;5057815;28;20954;-77
2023/01/05 01:36:55;;;;;;;31.90;4.35;;;9.60;99.90;;;;;;5043707;28;20071;-79
2023/01/05 01:39:21;;;;;;;36.88;5.25;;;9.60;99.90;;;;;;5042378;28;20041;-78
2023/01/05 01:41:46;;;;;;;27.40;4.45;;;9.90;99.90;;;;;;5020936;28;20124;-76
2023/01/05 01:47:56;;;;;;;31.25;4.35;;;9.80;99.90;;;;;;5058499;28;20047;-77
2023/01/05 01:50:38;;;;;;;27.92;4.90;;;10.00;99.90;;;;;;5044105;28;20070;-80
2023/01/05 01:53:12;;;;;;;27.52;4.20;;;9.70;99.90;;;;;;5030170;28;20051;-79
2023/01/05 01:55:39;;;;;;;30.20;4.05;;;9.80;99.90;;;;;;5049375;28;20041;-79
2023/01/05 02:01:49;;;;;;;25.08;3.70;;;9.60;99.90;;;;;;5064205;28;20036;-78
2023/01/05 02:04:14;;;;;;;27.60;4.65;;;9.80;99.90;;;;;;5039029;28;20369;-79
2023/01/05 02:06:40;;;;;;;29.75;4.00;;;9.90;99.90;;;;;;5041518;28;20037;-78
2023/01/05 02:09:06;;;;;;;22.55;3.65;;;9.90;99.90;;;;;;5060037;28;20048;-77
2023/01/05 02:11:46;;;;;;;34.88;4.82;;;9.80;99.90;;;;;;5047360;28;20072;-77
2023/01/05 02:14:19;;;;;;;29.70;4.45;;;10.00;99.90;;;;;;5045697;28;20095;-76
2023/01/05 02:17:10;;;;;;;27.48;4.55;;;10.00;99.90;;;;;;5074581;28;20048;-79
2023/01/05 02:19:58;;;;;;;27.05;4.10;;;9.90;99.90;;;;;;5044294;28;20049;-80
2023/01/05 02:22:49;;;;;;;29.05;4.32;;;10.00;99.90;;;;;;5027584;28;20049;-78
2023/01/05 02:25:48;;;;;;;27.83;4.25;;;9.90;99.90;;;;;;5032925;28;20033;-79
2023/01/05 02:28:47;;;;;;;26.88;4.45;;;9.70;99.90;;;;;;5047405;28;20214;-77
2023/01/05 02:31:25;;;;;;;27.95;4.20;;;9.90;99.90;;;;;;5040777;28;20118;-76
2023/01/05 02:34:17;;;;;;;34.22;5.43;;;9.70;99.90;;;;;;5040477;28;20053;-77
2023/01/05 02:37:08;;;;;;;31.23;4.43;;;9.60;99.90;;;;;;5044324;28;20045;-81
2023/01/05 02:40:00;;;;;;;33.53;4.93;;;9.70;99.90;;;;;;5038305;28;20109;-76
2023/01/05 02:42:29;;;;;;;33.03;4.68;;;9.60;99.90;;;;;;5031082;28;20124;-76
2023/01/05 02:44:54;;;;;;;37.08;4.35;;;9.70;99.90;;;;;;5024107;28;20049;-77
2023/01/05 02:47:26;;;;;;;32.63;5.20;;;9.70;99.90;;;;;;5018467;28;20055;-80
2023/01/05 02:49:57;;;;;;;33.80;4.85;;;9.60;99.90;;;;;;5050873;28;20123;-77
2023/01/05 02:52:23;;;;;;;29.92;4.72;;;9.60;99.90;;;;;;5015998;28;20056;-78
2023/01/05 02:55:06;;;;;;;34.67;4.85;;;9.90;99.90;;;;;;5040012;28;20049;-76
2023/01/05 02:57:45;;;;;;;38.75;5.13;;;9.60;99.90;;;;;;5026920;28;20421;-81
2023/01/05 03:00:16;;;;;;;32.58;4.28;;;9.60;99.90;;;;;;5055575;28;20124;-80
2023/01/05 03:02:44;;;;;;;29.10;4.25;;;9.90;99.90;;;;;;5071191;28;20442;-80
2023/01/05 03:05:15;;;;;;;30.73;4.38;;;9.60;99.90;;;;;;5074943;28;20049;-79
2023/01/05 03:07:42;;;;;;;30.33;4.90;;;9.90;99.90;;;;;;5054556;28;20440;-77
2023/01/05 03:15:45;;;;;;;30.98;4.30;;;9.50;99.90;;;;;;5045986;28;20041;-78
2023/01/05 03:18:16;;;;;;;37.05;4.50;;;9.50;99.90;;;;;;5041985;28;20053;-78
2023/01/05 03:20:49;;;;;;;31.30;4.88;;;9.50;99.90;;;;;;5072824;28;20993;-77
2023/01/05 03:37:53;;;;;;;30.45;4.50;;;9.60;99.90;;;;;;5060701;28;20747;-80
2023/01/05 03:40:26;;;;;;;28.88;4.35;;;9.90;99.90;;;;;;5030764;28;20049;-81
2023/01/05 03:42:54;;;;;;;37.95;4.72;;;9.80;99.90;;;;;;5056627;28;20052;-80
2023/01/05 03:45:21;;;;;;;30.83;4.40;;;9.90;99.90;;;;;;5043658;28;20612;-80
2023/01/05 03:47:48;;;;;;;34.13;5.35;;;9.70;99.90;;;;;;5045455;28;20088;-78
2023/01/05 03:50:14;;;;;;;37.08;5.25;;;9.60;99.90;;;;;;5041817;28;20100;-78
2023/01/05 03:52:39;;;;;;;27.67;3.75;;;9.60;99.90;;;;;;5040495;28;20054;-78
2023/01/05 03:55:07;;;;;;;40.42;5.95;;;9.60;99.90;;;;;;5040315;28;20067;-77
2023/01/05 03:57:33;;;;;;;31.45;4.47;;;9.50;99.90;;;;;;5045976;28;20044;-78
2023/01/05 04:00:36;;;;;;;32.67;4.60;;;9.50;99.90;;;;;;5029119;28;20558;-80
2023/01/05 04:03:02;;;;;;;32.45;4.60;;;9.70;99.90;;;;;;5073506;28;20123;-79
2023/01/05 04:05:28;;;;;;;33.40;5.35;;;9.50;99.90;;;;;;5059772;28;20040;-82
2023/01/05 04:07:53;;;;;;;32.30;4.78;;;9.50;99.90;;;;;;5043120;28;20116;-77
2023/01/05 04:10:19;;;;;;;30.25;4.65;;;9.60;99.90;;;;;;5081725;28;20033;-77
2023/01/05 04:12:46;;;;;;;27.55;4.32;;;9.90;99.90;;;;;;5076806;28;20095;-78
2023/01/05 04:19:12;;;;;;;37.67;5.22;;;9.80;99.90;;;;;;5058755;28;20032;-77
2023/01/05 04:21:41;;;;;;;34.22;4.22;;;9.60;99.90;;;;;;5059709;28;20048;-81
2023/01/05 04:24:11;;;;;;;31.77;4.65;;;9.80;99.90;;;;;;5055687;28;20051;-77
2023/01/05 04:26:38;;;;;;;30.25;4.80;;;9.90;99.90;;;;;;5059687;28;20041;-77
2023/01/05 04:29:04;;;;;;;26.95;4.70;;;10.00;99.90;;;;;;5041533;28;20037;-78
2023/01/05 04:31:30;;;;;;;30.70;4.43;;;9.70;99.90;;;;;;5022571;28;20038;-78
2023/01/05 04:33:56;;;;;;;31.90;4.70;;;9.80;99.90;;;;;;5069350;28;20045;-77
2023/01/05 04:36:22;;;;;;;35.45;4.60;;;9.90;99.90;;;;;;5056035;28;20460;-77
2023/01/05 04:38:48;;;;;;;39.40;5.93;;;9.80;99.90;;;;;;5020835;28;20041;-77
2023/01/05 04:41:13;;;;;;;31.60;5.30;;;9.60;99.90;;;;;;5072047;28;20044;-77
2023/01/05 04:43:57;;;;;;;33.70;4.82;;;9.70;99.90;;;;;;5023905;28;20184;-79
2023/01/05 04:46:23;;;;;;;35.10;5.13;;;9.90;99.90;;;;;;5070202;28;20044;-77
2023/01/05 04:48:49;;;;;;;32.67;4.65;;;9.70;99.90;;;;;;5023973;28;20053;-81
2023/01/05 04:51:14;;;;;;;24.55;4.47;;;9.80;99.90;;;;;;5042893;28;20032;-82
2023/01/05 04:53:41;;;;;;;36.08;5.55;;;9.60;99.90;;;;;;5057245;28;20033;-79
2023/01/05 04:56:07;;;;;;;40.55;5.20;;;9.70;99.90;;;;;;5022905;28;20048;-79
2023/01/05 05:02:36;;;;;;;36.83;5.10;;;9.80;99.90;;;;;;5071394;28;20034;-79
2023/01/05 05:05:02;;;;;;;37.47;5.05;;;9.70;99.90;;;;;;5034767;28;20049;-79
2023/01/05 05:07:28;;;;;;;28.40;4.15;;;9.90;99.90;;;;;;5022551;28;20343;-79
2023/01/05 05:09:54;;;;;;;35.05;4.82;;;9.70;99.90;;;;;;5034480;28;20089;-79
2023/01/05 05:12:19;;;;;;;31.60;4.55;;;9.80;99.90;;;;;;5008153;28;20073;-80
2023/01/05 05:14:47;;;;;;;33.15;5.15;;;9.70;99.90;;;;;;5041167;28;20030;-76
2023/01/05 05:17:12;;;;;;;33.63;5.20;;;9.70;99.90;;;;;;5041282;28;20196;-77
2023/01/05 05:19:38;;;;;;;30.17;4.32;;;9.70;99.90;;;;;;5039832;28;20065;-77
2023/01/05 05:22:04;;;;;;;34.55;4.78;;;9.60;99.90;;;;;;5005508;28;20044;-77
2023/01/05 05:24:29;;;;;;;33.00;5.22;;;9.60;99.90;;;;;;5040763;28;20049;-79
2023/01/05 05:26:56;;;;;;;39.58;4.82;;;9.70;99.90;;;;;;5038390;28;20669;-79
2023/01/05 05:29:59;;;;;;;48.03;5.63;;;9.70;99.90;;;;;;5016207;28;20099;-80
2023/01/05 05:32:25;;;;;;;32.47;4.10;;;9.70;99.90;;;;;;5040759;28;20477;-77
2023/01/05 05:34:50;;;;;;;34.60;4.57;;;9.80;99.90;;;;;;5028124;28;20037;-77
2023/01/05 05:37:16;;;;;;;36.38;4.85;;;9.70;99.90;;;;;;5022894;28;20127;-77
2023/01/05 05:39:42;;;;;;;37.63;5.22;;;9.90;99.90;;;;;;5003792;28;20400;-79
2023/01/05 05:42:07;;;;;;;37.63;5.28;;;9.90;99.90;;;;;;5019867;28;20060;-79
2023/01/05 05:44:33;;;;;;;32.03;5.30;;;9.70;99.90;;;;;;5038482;28;20058;-80
2023/01/05 05:46:59;;;;;;;30.02;4.75;;;9.60;99.90;;;;;;5015789;28;20034;-78
2023/01/05 05:49:24;;;;;;;30.38;4.38;;;9.80;99.90;;;;;;5028175;28;20044;-80
2023/01/05 05:51:51;;;;;;;35.97;4.80;;;9.80;99.90;;;;;;5025432;28;20096;-80
2023/01/05 05:54:16;;;;;;;30.85;4.32;;;9.80;99.90;;;;;;5024675;28;21226;-77
2023/01/05 05:56:42;;;;;;;33.35;4.28;;;9.50;99.90;;;;;;5024677;28;20068;-79
2023/01/05 05:59:08;;;;;;;31.30;4.80;;;9.70;99.90;;;;;;5010416;28;20049;-78
2023/01/05 06:01:33;;;;;;;31.20;5.03;;;9.90;99.90;;;;;;5043458;28;20033;-77
2023/01/05 06:03:59;;;;;;;38.65;5.13;;;9.60;99.90;;;;;;5036075;28;20437;-79
2023/01/05 06:06:25;;;;;;;35.47;5.18;;;9.80;99.90;;;;;;5072799;28;20053;-79
2023/01/05 06:08:50;;;;;;;30.70;4.18;;;9.70;99.90;;;;;;5062365;28;20399;-78
2023/01/05 06:11:16;;;;;;;33.38;5.15;;;9.50;99.90;;;;;;5044160;28;20033;-82
2023/01/05 06:13:42;;;;;;;29.75;4.55;;;9.70;99.90;;;;;;5056783;28;20048;-78
2023/01/05 06:16:08;;;;;;;29.90;4.55;;;9.80;99.90;;;;;;5043434;28;20065;-78
2023/01/05 06:18:34;;;;;;;29.33;5.20;;;9.70;99.90;;;;;;5025080;28;20079;-77
2023/01/05 06:20:59;;;;;;;34.30;4.85;;;9.50;99.90;;;;;;5046443;28;20132;-81
2023/01/05 06:23:25;;;;;;;26.88;4.78;;;9.50;99.90;;;;;;5050051;28;20063;-78
2023/01/05 06:25:51;;;;;;;31.35;4.30;;;9.90;99.90;;;;;;5024843;28;20029;-77
2023/01/05 06:28:17;;;;;;;32.38;4.53;;;9.50;99.90;;;;;;5033706;28;20033;-79
2023/01/05 06:31:20;;;;;;;30.88;4.60;;;9.40;99.90;;;;;;5047200;28;20036;-79
2023/01/05 06:33:45;;;;;;;30.25;4.57;;;9.40;99.90;;;;;;5060535;28;20045;-78
2023/01/05 06:36:11;;;;;;;27.85;4.13;;;9.60;99.90;;;;;;5065578;28;20045;-79
2023/01/05 06:38:36;;;;;;;33.78;4.43;;;9.40;99.90;;;;;;5042539;28;20123;-79
2023/01/05 06:41:02;;;;;;;35.92;4.88;;;9.40;99.90;;;;;;5023924;28;20083;-78
2023/01/05 06:43:28;;;;;;;34.22;4.72;;;9.50;99.90;;;;;;5056710;28;20041;-76
2023/01/05 06:46:12;;;;;;;39.28;5.15;;;9.40;99.90;;;;;;5059184;28;20029;-76
2023/01/05 06:48:37;;;;;;;39.65;5.13;;;9.70;99.90;;;;;;5020002;28;20045;-76
2023/01/05 06:51:03;;;;;;;37.25;4.93;;;9.50;99.90;;;;;;5039245;28;20040;-76
2023/01/05 06:53:29;;;;;;;36.92;4.38;;;9.40;99.90;;;;;;5043881;28;20030;-75
2023/01/05 06:55:54;;;;;;;34.22;5.13;;;9.50;99.90;;;;;;5040054;28;20569;-77
2023/01/05 06:58:20;;;;;;;37.42;5.40;;;9.40;99.90;;;;;;5059854;28;20036;-76
2023/01/05 07:00:46;;;;;;;36.35;5.10;;;9.40;99.90;;;;;;5053704;28;20045;-75
2023/01/05 07:03:13;;;;;;;42.78;5.60;;;9.50;99.90;;;;;;5065788;28;20048;-76
2023/01/05 07:05:40;;;;;;;37.75;5.22;;;9.20;99.90;;;;;;5059025;28;20044;-76
2023/01/05 07:08:06;;;;;;;35.22;4.30;;;9.70;99.90;;;;;;5041029;28;20150;-77
2023/01/05 07:10:33;;;;;;;45.83;5.15;;;9.50;99.90;;;;;;5025747;28;20178;-76
2023/01/05 07:12:59;;;;;;;46.13;5.35;;;9.70;99.90;;;;;;5071238;28;20049;-78
2023/01/05 07:15:45;;;;;;;35.30;5.43;;;9.60;99.90;;;;;;5057897;28;20523;-76
2023/01/05 07:18:11;;;;;;;39.75;5.82;;;9.40;99.90;;;;;;5040650;28;20155;-78
2023/01/05 07:20:37;;;;;;;33.22;5.05;;;9.30;99.90;;;;;;5051058;28;20051;-78
2023/01/05 07:23:03;;;;;;;42.85;5.95;;;9.40;99.90;;;;;;5041771;28;20060;-78
2023/01/05 07:25:30;;;;;;;32.80;4.28;;;9.50;99.90;;;;;;5051720;28;20040;-80
2023/01/05 07:27:57;;;;;;;36.88;4.72;;;9.30;99.90;;;;;;5074712;28;20045;-77
2023/01/05 07:30:23;;;;;;;32.65;5.00;;;9.60;99.90;;;;;;5074175;28;20144;-76
2023/01/05 07:32:48;;;;;;;36.58;5.47;;;9.30;99.90;;;;;;5040333;28;20060;-78
2023/01/05 07:35:14;;;;;;;33.83;4.88;;;9.60;99.90;;;;;;5037609;28;20103;-77
2023/01/05 07:37:40;;;;;;;33.63;4.70;;;9.50;99.90;;;;;;5036819;28;20349;-77
2023/01/05 07:40:06;;;;;;;29.08;4.85;;;9.20;99.90;;;;;;5033143;28;20053;-77
2023/01/05 07:42:33;;;;;;;31.42;4.78;;;9.50;99.90;;;;;;5038231;28;20055;-77
2023/01/05 07:44:59;;;;;;;38.30;4.97;;;9.30;99.90;;;;;;5043676;28;20049;-74
2023/01/05 07:47:24;;;;;;;33.10;5.05;;;9.60;99.90;;;;;;5027883;28;20045;-75
2023/01/05 07:49:50;;;;;;;34.10;4.57;;;9.50;99.90;;;;;;5062759;28;20036;-77
2023/01/05 07:52:16;;;;;;;32.70;5.35;;;9.60;99.90;;;;;;5044942;28;20483;-79
2023/01/05 07:54:42;;;;;;;34.08;5.05;;;9.30;99.90;;;;;;5037067;28;20056;-83
2023/01/05 07:57:07;;;;;;;31.13;4.65;;;9.70;99.90;;;;;;5034459;28;20064;-76
2023/01/05 07:59:36;;;;;;;30.67;5.03;;;9.40;99.90;;;;;;5055577;28;20028;-77
2023/01/05 08:02:02;;;;;;;34.15;4.53;;;9.50;99.90;;;;;;5037791;28;20056;-78
2023/01/05 08:04:28;;;;;;;30.80;4.20;;;9.30;99.90;;;;;;5031086;28;20077;-79
2023/01/05 08:06:55;;;;;;;25.30;4.03;;;9.50;99.90;;;;;;5074645;28;20041;-77
2023/01/05 08:12:05;;;;;;;31.58;4.43;;;9.60;99.90;;;;;;5067379;28;20055;-79
2023/01/05 08:14:30;;;;;;;29.30;4.50;;;9.20;99.90;;;;;;5044642;28;20120;-79
2023/01/05 08:16:56;;;;;;;32.72;3.38;;;9.20;99.90;;;;;;5051827;28;20394;-77
2023/01/05 08:19:22;;;;;;;29.15;4.05;;;9.50;99.90;;;;;;5036630;28;20045;-76
2023/01/05 08:21:47;;;;;;;31.13;4.60;;;9.40;99.90;;;;;;5030090;28;20044;-76
2023/01/05 08:24:13;;;;;;;26.40;3.30;;;9.50;99.90;;;;;;5027042;28;20091;-78
2023/01/05 08:26:39;;;;;;;28.58;4.07;;;9.60;99.90;;;;;;5069727;28;20135;-77
2023/01/05 08:29:17;;;;;;;31.55;4.70;;;9.30;99.90;;;;;;5022801;28;20048;-76
2023/01/05 08:31:43;;;;;;;28.05;3.80;;;9.50;99.90;;;;;;5040305;28;20041;-76
2023/01/05 08:34:08;;;;;;;35.47;4.28;;;9.60;99.90;;;;;;5055781;28;20076;-78
2023/01/05 08:36:34;;;;;;;38.78;4.93;;;9.40;99.90;;;;;;5023759;28;20067;-78
2023/01/05 08:39:02;;;;;;;28.63;4.60;;;9.50;99.90;;;;;;5024962;28;20049;-76
2023/01/05 08:41:34;;;;;;;30.30;4.63;;;9.40;99.90;;;;;;5060498;28;20057;-75
2023/01/05 08:44:02;;;;;;;31.17;4.85;;;9.30;99.90;;;;;;5046795;28;20053;-78
2023/01/05 08:46:34;;;;;;;36.20;4.80;;;9.60;99.90;;;;;;5061259;28;20033;-78
2023/01/05 08:49:03;;;;;;;30.88;4.45;;;9.60;99.90;;;;;;5077889;28;20041;-78
2023/01/05 08:51:29;;;;;;;37.70;5.40;;;9.40;99.90;;;;;;5047939;28;20106;-78
2023/01/05 08:53:56;;;;;;;39.97;5.47;;;9.70;99.90;;;;;;5047904;28;20062;-78
2023/01/05 08:56:24;;;;;;;40.47;5.25;;;9.70;99.90;;;;;;5064759;28;20120;-79
2023/01/05 08:58:51;;;;;;;41.28;4.97;;;9.80;99.90;;;;;;5048008;28;20044;-78
2023/01/05 09:04:42;;;;;;;35.15;5.05;;;9.30;99.90;;;;;;5045173;28;20087;-79
2023/01/05 09:07:08;;;;;;;41.55;5.25;;;9.50;99.90;;;;;;5045461;28;20057;-78
2023/01/05 09:09:34;;;;;;;36.58;4.82;;;9.70;99.90;;;;;;5043046;28;21643;-79
2023/01/05 09:11:59;;;;;;;38.80;4.95;;;9.30;99.90;;;;;;5030895;28;20055;-79
2023/01/05 09:18:50;;;;;;;39.63;4.82;;;9.30;99.90;;;;;;5062852;28;20035;-78
2023/01/05 09:21:17;;;;;;;34.10;5.20;;;9.30;99.90;;;;;;5060546;28;20037;-78
2023/01/05 09:23:43;;;;;;;35.95;4.63;;;9.30;99.90;;;;;;5047977;28;20354;-80
2023/01/05 09:26:11;;;;;;;25.85;4.00;;;9.40;99.90;;;;;;5074408;28;20067;-80
2023/01/05 09:28:38;;;;;;;22.42;2.72;;;9.60;99.90;;;;;;5039095;28;20084;-78
2023/01/05 09:31:26;;;;;;;25.98;3.50;;;9.60;99.90;;;;;;5044240;28;20132;-78
2023/01/05 09:33:51;;;;;;;32.67;3.63;;;9.20;99.90;;;;;;5034703;28;20052;-78
2023/01/05 09:36:18;;;;;;;29.67;3.38;;;9.40;99.90;;;;;;5042092;28;20053;-77
2023/01/05 09:38:49;;;;;;;33.80;3.95;;;9.40;99.90;;;;;;5044368;28;20074;-77
2023/01/05 09:41:39;;;;;;;28.38;3.75;;;9.60;99.90;;;;;;5046680;28;20506;-76
2023/01/05 09:47:43;;;;;;;46.47;5.20;;;9.70;99.90;;;;;;5052958;28;20040;-78
2023/01/05 09:50:24;;;;;;;31.15;4.45;;;9.30;99.90;;;;;;5061563;28;20080;-78
2023/01/05 09:52:53;;;;;;;29.75;4.60;;;9.40;99.90;;;;;;5028046;28;20052;-80
2023/01/05 09:55:22;;;;;;;30.52;4.90;;;9.90;99.90;;;;;;5075425;28;20087;-81
2023/01/05 09:57:59;;;;;;;37.40;5.50;;;9.70;99.90;;;;;;5032072;28;20060;-84
2023/01/05 10:00:26;;;;;;;30.02;4.03;;;9.70;99.90;;;;;;5044637;28;20233;-82
2023/01/05 10:02:58;;;;;;;26.73;3.60;;;9.70;99.90;;;;;;5024107;28;20053;-82
2023/01/05 10:05:26;;;;;;;27.83;4.18;;;9.40;99.90;;;;;;5041508;28;20049;-83
2023/01/05 10:08:05;;;;;;;28.67;3.80;;;9.40;99.90;;;;;;5058372;28;20047;-82
2023/01/05 10:13:01;;;;;;;20.40;3.55;;;9.60;99.90;;;;;;5056364;28;20048;-81
2023/01/05 10:13:35;;;;;;;34.83;4.30;;;9.70;99.90;;;;;;5075477;28;20060;-81
2023/01/05 10:16:03;;;;;;;26.27;3.58;;;9.50;99.90;;;;;;5062852;28;20088;-82
2023/01/05 10:18:30;;;;;;;23.33;3.30;;;9.80;99.90;;;;;;5065087;28;20037;-81
2023/01/05 10:21:22;;;;;;;25.38;3.78;;;9.70;99.90;;;;;;5025733;28;20060;-82
2023/01/05 10:24:02;;;;;;;33.08;3.78;;;9.80;99.90;;;;;;5045559;28;20255;-82
2023/01/05 10:26:44;;;;;;;28.08;3.65;;;9.50;99.90;;;;;;5037653;28;20095;-81
2023/01/05 10:29:15;;;;;;;23.25;3.67;;;9.50;99.90;;;;;;5030754;28;20037;-79
2023/01/05 10:32:05;;;;;;;24.50;3.53;;;9.80;99.90;;;;;;5054557;28;20033;-82
2023/01/05 10:34:53;;;;;;;19.95;3.05;;;9.80;99.90;;;;;;5039342;28;20152;-81
2023/01/05 10:37:40;;;;;;;16.55;2.45;;;9.60;99.90;;;;;;5035813;28;20045;-84
2023/01/05 10:40:12;;;;;;;18.75;2.67;;;9.60;99.90;;;;;;5051953;28;20461;-82
2023/01/05 10:43:04;;;;;;;14.15;1.90;;;9.70;99.90;;;;;;5034944;28;20072;-80
2023/01/05 10:46:10;;;;;;;15.70;1.85;;;9.80;99.90;;;;;;5017026;28;20053;-81
2023/01/05 10:48:37;;;;;;;14.00;2.05;;;9.70;99.90;;;;;;5041604;28;20076;-82
2023/01/05 10:51:04;;;;;;;16.00;2.58;;;9.90;99.90;;;;;;5022665;28;20041;-81
2023/01/05 10:53:34;;;;;;;14.55;2.50;;;9.90;99.90;;;;;;5058908;28;20460;-78
2023/01/05 10:56:09;;;;;;;18.02;2.78;;;10.00;99.90;;;;;;5075203;28;20118;-80
2023/01/05 10:59:06;;;;;;;15.85;2.70;;;9.90;99.90;;;;;;5072516;28;20045;-80
2023/01/05 11:01:52;;;;;;;17.73;2.35;;;10.00;99.90;;;;;;5074679;28;20125;-82
2023/01/05 11:04:23;;;;;;;22.83;3.45;;;9.80;99.90;;;;;;5071767;28;20071;-83
2023/01/05 11:06:49;;;;;;;23.10;3.28;;;9.80;99.90;;;;;;5041809;28;20037;-83
2023/01/05 11:09:25;;;;;;;18.33;2.55;;;10.00;99.90;;;;;;5035998;28;20041;-82
2023/01/05 11:12:01;;;;;;;22.52;3.00;;;9.90;99.90;;;;;;5044415;28;20084;-84
2023/01/05 11:14:31;;;;;;;19.60;3.35;;;10.20;99.90;;;;;;5065774;28;20052;-82
2023/01/05 11:17:06;;;;;;;23.98;3.35;;;10.00;99.90;;;;;;5046979;28;20044;-82
2023/01/05 11:19:36;;;;;;;24.05;3.83;;;9.90;99.90;;;;;;5053113;28;20033;-82
2023/01/05 11:22:03;;;;;;;29.42;3.60;;;10.00;99.90;;;;;;5017526;28;20120;-83
2023/01/05 11:24:34;;;;;;;23.55;3.28;;;10.00;99.90;;;;;;5033899;28;20162;-84
2023/01/05 11:27:23;;;;;;;24.33;3.42;;;9.90;99.90;;;;;;5033483;28;20040;-82
2023/01/05 11:30:15;;;;;;;22.83;2.85;;;9.80;99.90;;;;;;5047720;28;20182;-84
2023/01/05 11:32:45;;;;;;;21.42;2.83;;;9.90;99.90;;;;;;5026237;28;20056;-81
2023/01/05 11:35:28;;;;;;;20.23;3.10;;;10.10;99.90;;;;;;5033195;28;20065;-80
2023/01/05 11:37:56;;;;;;;21.05;2.92;;;9.90;99.90;;;;;;5031473;28;20045;-81
2023/01/05 11:40:27;;;;;;;25.15;3.88;;;9.70;99.90;;;;;;5031689;28;22149;-83
2023/01/05 11:42:53;;;;;;;27.20;3.58;;;9.70;99.90;;;;;;5033785;28;20118;-81
2023/01/05 11:45:23;;;;;;;34.60;3.67;;;9.90;99.90;;;;;;5031098;28;20048;-83
2023/01/05 11:47:53;;;;;;;26.13;3.50;;;10.00;99.90;;;;;;5034293;28;20464;-81
2023/01/05 11:50:26;;;;;;;27.90;4.18;;;9.80;99.90;;;;;;5013240;28;20984;-82
2023/01/05 11:52:59;;;;;;;27.88;3.97;;;9.80;99.90;;;;;;5031251;28;20102;-82
2023/01/05 11:55:29;;;;;;;34.90;4.18;;;9.70;99.90;;;;;;5029699;28;20088;-81
2023/01/05 11:58:09;;;;;;;33.38;4.13;;;9.80;99.90;;;;;;5014783;28;20062;-83
2023/01/05 12:01:00;;;;;;;26.40;3.75;;;9.90;99.90;;;;;;5048015;28;20052;-84
2023/01/05 12:03:47;;;;;;;25.40;3.78;;;9.90;99.90;;;;;;5047245;28;20568;-82
2023/01/05 12:06:43;;;;;;;26.52;3.80;;;10.20;99.90;;;;;;5047286;28;20055;-81
2023/01/05 12:09:09;;;;;;;;;;;10.00;99.90;;;;;;5048680;28;20037;-81
2023/01/05 12:11:48;;;;;;;21.60;3.30;;;10.10;99.90;;;;;;5047055;28;19923;-83
2023/01/05 12:14:23;;;;;;;22.77;3.17;;;10.10;99.90;;;;;;5029293;28;20049;-83
2023/01/05 12:20:37;;;;;;;19.00;2.63;;;10.30;99.90;;;;;;5050963;28;20047;-83
2023/01/05 12:23:32;;;;;;;23.20;3.08;;;10.30;99.90;;;;;;5051379;28;20053;-81
2023/01/05 12:26:12;;;;;;;19.10;3.25;;;10.10;99.90;;;;;;4996754;28;20073;-84
2023/01/05 12:28:40;;;;;;;18.33;2.67;;;10.40;99.90;;;;;;4992011;28;20125;-81
2023/01/05 12:31:29;;;;;;;20.58;2.97;;;10.20;99.90;;;;;;4981077;28;20059;-82
2023/01/05 12:34:24;;;;;;;18.95;2.78;;;10.20;99.90;;;;;;4993099;28;20109;-83
2023/01/05 12:37:09;;;;;;;22.83;2.92;;;10.30;99.90;;;;;;4976035;28;20085;-84
2023/01/05 12:39:35;;;;;;;16.92;2.58;;;10.40;99.90;;;;;;4975782;28;20051;-81
2023/01/05 12:42:29;;;;;;;22.42;2.65;;;10.20;99.90;;;;;;4980175;28;20073;-82
2023/01/05 12:45:14;;;;;;;19.67;2.70;;;10.10;99.90;;;;;;4976672;28;20567;-82
2023/01/05 12:48:34;;;;;;;27.40;3.55;;;10.10;99.90;;;;;;4942953;28;20066;-79
2023/01/05 12:51:15;;;;;;;18.10;2.88;;;10.10;99.90;;;;;;4939163;29;20047;-85
2023/01/05 12:53:45;;;;;;;24.52;2.95;;;10.20;99.90;;;;;;4952774;28;20070;-84
2023/01/05 12:56:19;;;;;;;22.13;2.92;;;10.30;99.90;;;;;;4936790;28;20687;-79
2023/01/05 12:59:09;;;;;;;24.58;3.15;;;10.20;99.90;;;;;;4946594;28;20126;-83
2023/01/05 13:01:42;;;;;;;22.45;3.22;;;10.30;99.90;;;;;;4937599;28;20054;-79
2023/01/05 13:04:16;;;;;;;22.88;3.55;;;10.20;99.90;;;;;;4980391;28;20188;-81
2023/01/05 13:06:50;;;;;;;28.20;3.35;;;10.40;99.90;;;;;;4986730;28;20074;-82
2023/01/05 13:09:20;;;;;;;21.83;3.22;;;10.40;99.90;;;;;;4965129;28;20058;-84
2023/01/05 13:11:58;;;;;;;23.35;3.30;;;10.50;99.90;;;;;;4949309;28;20085;-81
2023/01/05 13:14:29;;;;;;;28.75;3.55;;;10.40;99.90;;;;;;4932996;28;20388;-84
2023/01/05 13:17:02;;;;;;;25.50;3.70;;;10.40;99.90;;;;;;4941966;28;20065;-81
2023/01/05 13:19:49;;;;;;;20.77;3.83;;;10.40;99.90;;;;;;4951553;28;20102;-80
2023/01/05 13:22:24;;;;;;;22.05;3.55;;;10.30;99.90;;;;;;4987871;28;20053;-82
2023/01/05 13:25:01;;;;;;;23.05;3.55;;;10.30;99.90;;;;;;4984288;28;20073;-83
2023/01/05 13:27:28;;;;;;;18.95;3.03;;;10.30;99.90;;;;;;5048002;28;20059;-83
2023/01/05 13:29:58;;;;;;;18.75;3.08;;;10.40;99.90;;;;;;5048998;28;20042;-82
2023/01/05 13:32:32;;;;;;;26.65;3.75;;;10.30;99.90;;;;;;5027769;28;20119;-84
2023/01/05 13:35:36;;;;;;;24.05;3.78;;;10.20;99.90;;;;;;5055596;28;20048;-81
2023/01/05 13:38:43;;;;;;;26.15;3.80;;;10.10;99.90;;;;;;5033481;28;20091;-87
2023/01/05 13:41:35;;;;;;;27.13;4.38;;;10.30;99.90;;;;;;5013570;28;20053;-84
2023/01/05 13:44:12;;;;;;;25.40;3.97;;;10.20;99.90;;;;;;5040346;28;20064;-84
2023/01/05 13:47:19;;;;;;;25.73;3.97;;;10.00;99.90;;;;;;5033051;28;20043;-84
2023/01/05 13:50:00;;;;;;;29.80;3.88;;;9.90;99.90;;;;;;5044455;28;20461;-83
2023/01/05 13:52:35;;;;;;;23.80;4.30;;;9.90;99.90;;;;;;5029124;28;20461;-84
2023/01/05 13:55:08;;;;;;;30.05;3.63;;;10.20;99.90;;;;;;5027708;28;20556;-85
2023/01/05 13:57:41;;;;;;;26.88;4.75;;;9.90;99.90;;;;;;5017914;28;20136;-81
2023/01/05 14:00:20;;;;;;;30.67;4.20;;;10.20;99.90;;;;;;5036040;28;20080;-84
2023/01/05 14:03:14;;;;;;;33.70;4.50;;;10.00;99.90;;;;;;5034925;28;20048;-85
2023/01/05 14:05:54;;;;;;;26.85;4.22;;;10.00;99.90;;;;;;5035019;28;20057;-83
2023/01/05 14:08:27;;;;;;;22.83;4.93;;;10.20;99.90;;;;;;5072993;28;20061;-83
2023/01/05 14:11:10;;;;;;;27.85;5.22;;;9.90;99.90;;;;;;5047975;28;20056;-82
2023/01/05 14:13:46;;;;;;;32.47;5.22;;;9.90;99.90;;;;;;5035587;28;20138;-82
2023/01/05 14:16:34;;;;;;;24.73;4.40;;;10.20;99.90;;;;;;5057320;28;20045;-82